sensor_id;sensor_type;location;lat;lon;timestamp;P1;durP1;ratioP1;P2;durP2;ratioP2
19414;SDS011;9843;48.882;12.592;2023-08-08T00:01:33;5.60;;;5.10;;
19414;SDS011;9843;48.882;12.592;2023-08-08T00:04:00;5.20;;;3.93;;
19414;SDS011;9843;48.882;12.592;2023-08-08T00:06:27;7.83;;;4.43;;
19414;SDS011;9843;48.882;12.592;2023-08-08T00:08:54;4.57;;;4.20;;
19414;SDS011;9843;48.882;12.592;2023-08-08T00:11:21;5.57;;;4.90;;
19414;SDS011;9843;48.882;12.592;2023-08-08T00:13:50;4.57;;;4.10;;
19414;SDS011;9843;48.882;12.592;2023-08-08T00:16:17;5.67;;;4.30;;
19414;SDS011;9843;48.882;12.592;2023-08-08T00:18:44;3.80;;;3.50;;
19414;SDS011;9843;48.882;12.592;2023-08-08T00:21:11;6.13;;;4.90;;
19414;SDS011;9843;48.882;12.592;2023-08-08T00:23:38;5.07;;;4.60;;
19414;SDS011;9843;48.882;12.592;2023-08-08T00:26:05;5.00;;;4.60;;
19414;SDS011;9843;48.882;12.592;2023-08-08T00:28:32;6.57;;;5.93;;
19414;SDS011;9843;48.882;12.592;2023-08-08T00:31:01;5.47;;;4.37;;
19414;SDS011;9843;48.882;12.592;2023-08-08T00:33:28;6.00;;;3.77;;
19414;SDS011;9843;48.882;12.592;2023-08-08T00:35:55;5.07;;;4.63;;
19414;SDS011;9843;48.882;12.592;2023-08-08T00:38:22;5.13;;;3.73;;
19414;SDS011;9843;48.882;12.592;2023-08-08T00:40:49;7.63;;;4.73;;
19414;SDS011;9843;48.882;12.592;2023-08-08T00:43:16;9.27;;;4.33;;
19414;SDS011;9843;48.882;12.592;2023-08-08T00:45:43;6.47;;;5.80;;
19414;SDS011;9843;48.882;12.592;2023-08-08T00:48:12;4.03;;;3.73;;
19414;SDS011;9843;48.882;12.592;2023-08-08T00:50:41;6.23;;;4.30;;
19414;SDS011;9843;48.882;12.592;2023-08-08T00:53:08;6.43;;;4.33;;
19414;SDS011;9843;48.882;12.592;2023-08-08T00:55:36;3.70;;;3.47;;
19414;SDS011;9843;48.882;12.592;2023-08-08T00:58:03;4.90;;;4.40;;
19414;SDS011;9843;48.882;12.592;2023-08-08T01:00:30;5.03;;;4.50;;
19414;SDS011;9843;48.882;12.592;2023-08-08T01:02:57;4.93;;;4.10;;
19414;SDS011;9843;48.882;12.592;2023-08-08T01:05:26;5.10;;;4.60;;
19414;SDS011;9843;48.882;12.592;2023-08-08T01:07:57;5.10;;;4.60;;
19414;SDS011;9843;48.882;12.592;2023-08-08T01:10:26;5.07;;;4.67;;
19414;SDS011;9843;48.882;12.592;2023-08-08T01:12:55;5.67;;;4.93;;
19414;SDS011;9843;48.882;12.592;2023-08-08T01:15:24;7.33;;;4.83;;
19414;SDS011;9843;48.882;12.592;2023-08-08T01:17:51;5.73;;;5.00;;
19414;SDS011;9843;48.882;12.592;2023-08-08T01:20:19;7.30;;;5.13;;
19414;SDS011;9843;48.882;12.592;2023-08-08T01:22:50;9.90;;;5.40;;
19414;SDS011;9843;48.882;12.592;2023-08-08T01:25:23;6.07;;;5.47;;
19414;SDS011;9843;48.882;12.592;2023-08-08T01:27:51;4.97;;;4.53;;
19414;SDS011;9843;48.882;12.592;2023-08-08T01:30:18;6.53;;;5.77;;
19414;SDS011;9843;48.882;12.592;2023-08-08T01:32:45;5.47;;;4.97;;
19414;SDS011;9843;48.882;12.592;2023-08-08T01:35:13;7.07;;;4.90;;
19414;SDS011;9843;48.882;12.592;2023-08-08T01:37:41;5.87;;;5.27;;
19414;SDS011;9843;48.882;12.592;2023-08-08T01:40:10;7.13;;;5.57;;
19414;SDS011;9843;48.882;12.592;2023-08-08T01:42:40;6.07;;;5.43;;
19414;SDS011;9843;48.882;12.592;2023-08-08T01:45:08;7.10;;;5.23;;
19414;SDS011;9843;48.882;12.592;2023-08-08T01:47:36;5.77;;;5.27;;
19414;SDS011;9843;48.882;12.592;2023-08-08T01:50:03;6.53;;;5.93;;
19414;SDS011;9843;48.882;12.592;2023-08-08T01:52:30;6.00;;;5.40;;
19414;SDS011;9843;48.882;12.592;2023-08-08T01:54:57;6.50;;;5.80;;
19414;SDS011;9843;48.882;12.592;2023-08-08T01:57:24;6.47;;;5.87;;
19414;SDS011;9843;48.882;12.592;2023-08-08T01:59:53;6.03;;;5.40;;
19414;SDS011;9843;48.882;12.592;2023-08-08T02:02:20;5.47;;;4.97;;
19414;SDS011;9843;48.882;12.592;2023-08-08T02:04:47;5.90;;;5.40;;
19414;SDS011;9843;48.882;12.592;2023-08-08T02:07:14;5.60;;;5.10;;
19414;SDS011;9843;48.882;12.592;2023-08-08T02:09:41;7.07;;;6.37;;
19414;SDS011;9843;48.882;12.592;2023-08-08T02:12:10;9.00;;;6.40;;
19414;SDS011;9843;48.882;12.592;2023-08-08T02:14:37;6.47;;;5.90;;
19414;SDS011;9843;48.882;12.592;2023-08-08T02:17:06;8.57;;;5.13;;
19414;SDS011;9843;48.882;12.592;2023-08-08T02:19:33;5.83;;;4.83;;
19414;SDS011;9843;48.882;12.592;2023-08-08T02:22:00;4.97;;;4.27;;
19414;SDS011;9843;48.882;12.592;2023-08-08T02:24:27;6.47;;;5.87;;
19414;SDS011;9843;48.882;12.592;2023-08-08T02:26:54;7.33;;;6.67;;
19414;SDS011;9843;48.882;12.592;2023-08-08T02:29:21;5.13;;;4.73;;
19414;SDS011;9843;48.882;12.592;2023-08-08T02:31:48;5.13;;;4.57;;
19414;SDS011;9843;48.882;12.592;2023-08-08T02:34:16;6.73;;;6.07;;
19414;SDS011;9843;48.882;12.592;2023-08-08T02:36:44;5.77;;;5.23;;
19414;SDS011;9843;48.882;12.592;2023-08-08T02:39:11;5.33;;;4.83;;
19414;SDS011;9843;48.882;12.592;2023-08-08T02:41:38;5.60;;;5.10;;
19414;SDS011;9843;48.882;12.592;2023-08-08T02:44:06;5.07;;;4.57;;
19414;SDS011;9843;48.882;12.592;2023-08-08T02:46:33;5.93;;;4.80;;
19414;SDS011;9843;48.882;12.592;2023-08-08T02:49:01;7.27;;;6.40;;
19414;SDS011;9843;48.882;12.592;2023-08-08T02:51:30;8.63;;;5.60;;
19414;SDS011;9843;48.882;12.592;2023-08-08T02:53:57;5.67;;;4.50;;
19414;SDS011;9843;48.882;12.592;2023-08-08T02:56:24;5.23;;;3.90;;
19414;SDS011;9843;48.882;12.592;2023-08-08T02:58:51;5.07;;;4.60;;
19414;SDS011;9843;48.882;12.592;2023-08-08T03:01:18;6.87;;;5.10;;
19414;SDS011;9843;48.882;12.592;2023-08-08T03:03:46;4.20;;;3.80;;
19414;SDS011;9843;48.882;12.592;2023-08-08T03:06:14;4.70;;;3.90;;
19414;SDS011;9843;48.882;12.592;2023-08-08T03:08:42;5.20;;;4.50;;
19414;SDS011;9843;48.882;12.592;2023-08-08T03:11:09;5.37;;;4.87;;
19414;SDS011;9843;48.882;12.592;2023-08-08T03:13:36;5.93;;;5.30;;
19414;SDS011;9843;48.882;12.592;2023-08-08T03:16:03;4.20;;;3.80;;
19414;SDS011;9843;48.882;12.592;2023-08-08T03:18:30;4.90;;;4.50;;
19414;SDS011;9843;48.882;12.592;2023-08-08T03:20:57;5.47;;;4.97;;
19414;SDS011;9843;48.882;12.592;2023-08-08T03:23:25;9.67;;;5.13;;
19414;SDS011;9843;48.882;12.592;2023-08-08T03:25:53;8.00;;;6.03;;
19414;SDS011;9843;48.882;12.592;2023-08-08T03:28:20;5.37;;;4.83;;
19414;SDS011;9843;48.882;12.592;2023-08-08T03:30:47;5.33;;;4.83;;
19414;SDS011;9843;48.882;12.592;2023-08-08T03:33:14;6.00;;;5.30;;
19414;SDS011;9843;48.882;12.592;2023-08-08T03:35:41;4.80;;;4.40;;
19414;SDS011;9843;48.882;12.592;2023-08-08T03:38:08;5.37;;;4.87;;
19414;SDS011;9843;48.882;12.592;2023-08-08T03:40:35;4.60;;;4.20;;
19414;SDS011;9843;48.882;12.592;2023-08-08T03:43:04;4.47;;;4.17;;
19414;SDS011;9843;48.882;12.592;2023-08-08T03:45:31;5.30;;;4.80;;
19414;SDS011;9843;48.882;12.592;2023-08-08T03:47:58;5.33;;;4.60;;
19414;SDS011;9843;48.882;12.592;2023-08-08T03:50:25;5.40;;;4.90;;
19414;SDS011;9843;48.882;12.592;2023-08-08T03:52:52;5.17;;;4.77;;
19414;SDS011;9843;48.882;12.592;2023-08-08T03:55:19;5.30;;;4.90;;
19414;SDS011;9843;48.882;12.592;2023-08-08T03:57:46;5.93;;;4.90;;
19414;SDS011;9843;48.882;12.592;2023-08-08T04:00:15;4.53;;;4.13;;
19414;SDS011;9843;48.882;12.592;2023-08-08T04:02:42;10.13;;;5.07;;
19414;SDS011;9843;48.882;12.592;2023-08-08T04:05:09;4.40;;;4.00;;
19414;SDS011;9843;48.882;12.592;2023-08-08T04:07:37;5.20;;;4.77;;
19414;SDS011;9843;48.882;12.592;2023-08-08T04:10:04;7.17;;;5.97;;
19414;SDS011;9843;48.882;12.592;2023-08-08T04:12:32;5.27;;;4.77;;
19414;SDS011;9843;48.882;12.592;2023-08-08T04:14:59;9.50;;;4.70;;
19414;SDS011;9843;48.882;12.592;2023-08-08T04:17:27;4.33;;;4.00;;
19414;SDS011;9843;48.882;12.592;2023-08-08T04:19:54;5.87;;;5.27;;
19414;SDS011;9843;48.882;12.592;2023-08-08T04:22:21;5.43;;;4.90;;
19414;SDS011;9843;48.882;12.592;2023-08-08T04:24:48;5.23;;;4.60;;
19414;SDS011;9843;48.882;12.592;2023-08-08T04:27:16;6.50;;;5.43;;
19414;SDS011;9843;48.882;12.592;2023-08-08T04:29:43;4.97;;;4.57;;
19414;SDS011;9843;48.882;12.592;2023-08-08T04:32:10;7.27;;;5.80;;
19414;SDS011;9843;48.882;12.592;2023-08-08T04:34:38;5.03;;;4.63;;
19414;SDS011;9843;48.882;12.592;2023-08-08T04:37:05;5.30;;;4.80;;
19414;SDS011;9843;48.882;12.592;2023-08-08T04:39:32;5.23;;;4.73;;
19414;SDS011;9843;48.882;12.592;2023-08-08T04:41:59;5.00;;;4.53;;
19414;SDS011;9843;48.882;12.592;2023-08-08T04:44:26;6.67;;;5.07;;
19414;SDS011;9843;48.882;12.592;2023-08-08T04:46:54;5.60;;;4.73;;
19414;SDS011;9843;48.882;12.592;2023-08-08T04:49:21;5.87;;;5.37;;
19414;SDS011;9843;48.882;12.592;2023-08-08T04:51:49;5.27;;;4.80;;
19414;SDS011;9843;48.882;12.592;2023-08-08T04:54:16;5.20;;;4.80;;
19414;SDS011;9843;48.882;12.592;2023-08-08T04:56:43;5.23;;;4.83;;
19414;SDS011;9843;48.882;12.592;2023-08-08T04:59:10;4.77;;;4.37;;
19414;SDS011;9843;48.882;12.592;2023-08-08T05:04:53;4.93;;;4.53;;
19414;SDS011;9843;48.882;12.592;2023-08-08T05:07:22;9.70;;;4.70;;
19414;SDS011;9843;48.882;12.592;2023-08-08T05:09:49;5.13;;;4.67;;
19414;SDS011;9843;48.882;12.592;2023-08-08T05:12:17;5.53;;;5.07;;
19414;SDS011;9843;48.882;12.592;2023-08-08T05:14:44;7.27;;;4.47;;
19414;SDS011;9843;48.882;12.592;2023-08-08T05:17:11;6.23;;;4.90;;
19414;SDS011;9843;48.882;12.592;2023-08-08T05:19:38;5.67;;;5.20;;
19414;SDS011;9843;48.882;12.592;2023-08-08T05:22:05;6.77;;;5.00;;
19414;SDS011;9843;48.882;12.592;2023-08-08T05:24:33;5.87;;;4.97;;
19414;SDS011;9843;48.882;12.592;2023-08-08T05:27:01;5.03;;;4.63;;
19414;SDS011;9843;48.882;12.592;2023-08-08T05:29:28;7.63;;;4.80;;
19414;SDS011;9843;48.882;12.592;2023-08-08T05:31:55;4.27;;;3.90;;
19414;SDS011;9843;48.882;12.592;2023-08-08T05:34:23;4.97;;;4.47;;
19414;SDS011;9843;48.882;12.592;2023-08-08T05:36:50;5.30;;;4.80;;
19414;SDS011;9843;48.882;12.592;2023-08-08T05:39:17;4.60;;;4.27;;
19414;SDS011;9843;48.882;12.592;2023-08-08T05:41:45;4.67;;;4.20;;
19414;SDS011;9843;48.882;12.592;2023-08-08T05:44:12;6.90;;;3.80;;
19414;SDS011;9843;48.882;12.592;2023-08-08T05:46:39;4.47;;;4.07;;
19414;SDS011;9843;48.882;12.592;2023-08-08T05:49:06;4.47;;;4.07;;
19414;SDS011;9843;48.882;12.592;2023-08-08T05:51:33;7.63;;;6.90;;
19414;SDS011;9843;48.882;12.592;2023-08-08T05:54:01;6.80;;;5.30;;
19414;SDS011;9843;48.882;12.592;2023-08-08T05:56:33;3.50;;;3.20;;
19414;SDS011;9843;48.882;12.592;2023-08-08T05:59:02;4.60;;;3.57;;
19414;SDS011;9843;48.882;12.592;2023-08-08T06:01:29;5.23;;;4.50;;
19414;SDS011;9843;48.882;12.592;2023-08-08T06:03:57;4.83;;;3.97;;
19414;SDS011;9843;48.882;12.592;2023-08-08T06:06:24;5.87;;;4.30;;
19414;SDS011;9843;48.882;12.592;2023-08-08T06:08:52;4.83;;;4.43;;
19414;SDS011;9843;48.882;12.592;2023-08-08T06:11:19;3.70;;;2.90;;
19414;SDS011;9843;48.882;12.592;2023-08-08T06:13:46;6.80;;;3.03;;
19414;SDS011;9843;48.882;12.592;2023-08-08T06:16:15;2.70;;;2.10;;
19414;SDS011;9843;48.882;12.592;2023-08-08T06:18:43;3.97;;;2.73;;
19414;SDS011;9843;48.882;12.592;2023-08-08T06:21:10;3.83;;;2.67;;
19414;SDS011;9843;48.882;12.592;2023-08-08T06:23:37;2.77;;;2.57;;
19414;SDS011;9843;48.882;12.592;2023-08-08T06:26:04;2.87;;;2.67;;
19414;SDS011;9843;48.882;12.592;2023-08-08T06:28:31;3.47;;;2.40;;
19414;SDS011;9843;48.882;12.592;2023-08-08T06:30:58;2.40;;;2.20;;
19414;SDS011;9843;48.882;12.592;2023-08-08T06:33:27;2.37;;;2.17;;
19414;SDS011;9843;48.882;12.592;2023-08-08T06:35:55;3.13;;;2.70;;
19414;SDS011;9843;48.882;12.592;2023-08-08T06:38:22;2.33;;;1.93;;
19414;SDS011;9843;48.882;12.592;2023-08-08T06:40:49;2.50;;;2.30;;
19414;SDS011;9843;48.882;12.592;2023-08-08T06:43:16;6.00;;;2.43;;
19414;SDS011;9843;48.882;12.592;2023-08-08T06:45:43;2.47;;;1.90;;
19414;SDS011;9843;48.882;12.592;2023-08-08T06:48:18;5.23;;;2.13;;
19414;SDS011;9843;48.882;12.592;2023-08-08T06:50:46;3.17;;;2.40;;
19414;SDS011;9843;48.882;12.592;2023-08-08T06:53:13;2.00;;;1.87;;
19414;SDS011;9843;48.882;12.592;2023-08-08T06:55:40;2.40;;;1.80;;
19414;SDS011;9843;48.882;12.592;2023-08-08T06:58:08;2.87;;;1.50;;
19414;SDS011;9843;48.882;12.592;2023-08-08T07:00:35;4.27;;;2.40;;
19414;SDS011;9843;48.882;12.592;2023-08-08T07:03:02;1.57;;;1.47;;
19414;SDS011;9843;48.882;12.592;2023-08-08T07:05:29;6.00;;;1.97;;
19414;SDS011;9843;48.882;12.592;2023-08-08T07:07:57;2.87;;;1.70;;
19414;SDS011;9843;48.882;12.592;2023-08-08T07:10:24;2.07;;;1.53;;
19414;SDS011;9843;48.882;12.592;2023-08-08T07:12:52;5.70;;;1.77;;
19414;SDS011;9843;48.882;12.592;2023-08-08T07:15:19;1.23;;;1.00;;
19414;SDS011;9843;48.882;12.592;2023-08-08T07:17:46;1.77;;;1.50;;
19414;SDS011;9843;48.882;12.592;2023-08-08T07:20:13;4.40;;;1.43;;
19414;SDS011;9843;48.882;12.592;2023-08-08T07:22:41;1.23;;;1.13;;
19414;SDS011;9843;48.882;12.592;2023-08-08T07:25:10;1.23;;;1.13;;
19414;SDS011;9843;48.882;12.592;2023-08-08T07:27:37;1.73;;;1.20;;
19414;SDS011;9843;48.882;12.592;2023-08-08T07:30:04;1.60;;;1.10;;
19414;SDS011;9843;48.882;12.592;2023-08-08T07:32:32;1.20;;;1.10;;
19414;SDS011;9843;48.882;12.592;2023-08-08T07:34:59;0.90;;;0.90;;
19414;SDS011;9843;48.882;12.592;2023-08-08T07:37:30;3.33;;;1.23;;
19414;SDS011;9843;48.882;12.592;2023-08-08T07:39:57;1.97;;;1.20;;
19414;SDS011;9843;48.882;12.592;2023-08-08T07:42:25;2.23;;;1.30;;
19414;SDS011;9843;48.882;12.592;2023-08-08T07:44:53;1.93;;;0.70;;
19414;SDS011;9843;48.882;12.592;2023-08-08T07:47:20;2.17;;;1.08;;
19414;SDS011;9843;48.882;12.592;2023-08-08T07:49:47;0.93;;;0.80;;
19414;SDS011;9843;48.882;12.592;2023-08-08T07:52:14;1.35;;;0.80;;
19414;SDS011;9843;48.882;12.592;2023-08-08T07:54:41;2.00;;;1.10;;
19414;SDS011;9843;48.882;12.592;2023-08-08T07:57:08;3.73;;;0.93;;
19414;SDS011;9843;48.882;12.592;2023-08-08T07:59:37;4.22;;;1.42;;
19414;SDS011;9843;48.882;12.592;2023-08-08T08:02:04;3.70;;;2.28;;
19414;SDS011;9843;48.882;12.592;2023-08-08T08:04:32;2.20;;;0.98;;
19414;SDS011;9843;48.882;12.592;2023-08-08T08:07:00;3.33;;;1.00;;
19414;SDS011;9843;48.882;12.592;2023-08-08T08:09:27;1.75;;;0.80;;
19414;SDS011;9843;48.882;12.592;2023-08-08T08:11:54;2.72;;;1.45;;
19414;SDS011;9843;48.882;12.592;2023-08-08T08:14:21;2.20;;;1.10;;
19414;SDS011;9843;48.882;12.592;2023-08-08T08:16:50;1.20;;;0.90;;
19414;SDS011;9843;48.882;12.592;2023-08-08T08:19:17;2.05;;;1.20;;
19414;SDS011;9843;48.882;12.592;2023-08-08T08:21:45;1.58;;;1.00;;
19414;SDS011;9843;48.882;12.592;2023-08-08T08:24:12;2.50;;;0.90;;
19414;SDS011;9843;48.882;12.592;2023-08-08T08:26:39;4.80;;;1.15;;
19414;SDS011;9843;48.882;12.592;2023-08-08T08:29:06;3.83;;;0.88;;
19414;SDS011;9843;48.882;12.592;2023-08-08T08:31:33;6.43;;;1.02;;
19414;SDS011;9843;48.882;12.592;2023-08-08T08:34:03;1.40;;;0.35;;
19414;SDS011;9843;48.882;12.592;2023-08-08T08:36:30;1.35;;;0.70;;
19414;SDS011;9843;48.882;12.592;2023-08-08T08:38:57;1.63;;;0.80;;
19414;SDS011;9843;48.882;12.592;2023-08-08T08:41:25;1.92;;;1.25;;
19414;SDS011;9843;48.882;12.592;2023-08-08T08:43:52;3.03;;;0.80;;
19414;SDS011;9843;48.882;12.592;2023-08-08T08:46:21;4.75;;;1.20;;
19414;SDS011;9843;48.882;12.592;2023-08-08T08:48:48;2.58;;;1.02;;
19414;SDS011;9843;48.882;12.592;2023-08-08T08:51:17;2.13;;;1.17;;
19414;SDS011;9843;48.882;12.592;2023-08-08T08:53:45;1.52;;;0.93;;
19414;SDS011;9843;48.882;12.592;2023-08-08T08:56:13;0.77;;;0.70;;
19414;SDS011;9843;48.882;12.592;2023-08-08T08:58:41;2.05;;;0.70;;
19414;SDS011;9843;48.882;12.592;2023-08-08T09:01:09;0.80;;;0.80;;
19414;SDS011;9843;48.882;12.592;2023-08-08T09:03:36;4.60;;;1.80;;
19414;SDS011;9843;48.882;12.592;2023-08-08T09:08:32;1.50;;;1.20;;
19414;SDS011;9843;48.882;12.592;2023-08-08T09:10:59;6.33;;;1.33;;
19414;SDS011;9843;48.882;12.592;2023-08-08T09:13:26;1.20;;;1.10;;
19414;SDS011;9843;48.882;12.592;2023-08-08T09:15:54;4.60;;;1.23;;
19414;SDS011;9843;48.882;12.592;2023-08-08T09:18:22;1.30;;;1.20;;
19414;SDS011;9843;48.882;12.592;2023-08-08T09:20:50;1.67;;;1.23;;
19414;SDS011;9843;48.882;12.592;2023-08-08T09:23:17;1.80;;;1.00;;
19414;SDS011;9843;48.882;12.592;2023-08-08T09:25:46;2.30;;;1.02;;
19414;SDS011;9843;48.882;12.592;2023-08-08T09:28:13;4.75;;;1.25;;
19414;SDS011;9843;48.882;12.592;2023-08-08T09:30:40;2.63;;;1.30;;
19414;SDS011;9843;48.882;12.592;2023-08-08T09:33:08;1.63;;;0.90;;
19414;SDS011;9843;48.882;12.592;2023-08-08T09:35:37;1.25;;;0.60;;
19414;SDS011;9843;48.882;12.592;2023-08-08T09:38:04;3.38;;;1.10;;
19414;SDS011;9843;48.882;12.592;2023-08-08T09:40:32;0.85;;;0.50;;
19414;SDS011;9843;48.882;12.592;2023-08-08T09:43:00;1.02;;;0.50;;
19414;SDS011;9843;48.882;12.592;2023-08-08T09:45:34;0.82;;;0.60;;
19414;SDS011;9843;48.882;12.592;2023-08-08T09:48:01;1.52;;;0.80;;
19414;SDS011;9843;48.882;12.592;2023-08-08T09:50:28;0.88;;;0.57;;
19414;SDS011;9843;48.882;12.592;2023-08-08T09:52:57;5.65;;;0.90;;
19414;SDS011;9843;48.882;12.592;2023-08-08T09:55:25;1.60;;;1.13;;
19414;SDS011;9843;48.882;12.592;2023-08-08T09:57:52;4.65;;;0.60;;
19414;SDS011;9843;48.882;12.592;2023-08-08T10:00:21;0.88;;;0.50;;
19414;SDS011;9843;48.882;12.592;2023-08-08T10:02:50;0.90;;;0.70;;
19414;SDS011;9843;48.882;12.592;2023-08-08T10:05:17;1.45;;;0.77;;
19414;SDS011;9843;48.882;12.592;2023-08-08T10:07:44;2.90;;;1.08;;
19414;SDS011;9843;48.882;12.592;2023-08-08T10:10:11;1.13;;;0.57;;
19414;SDS011;9843;48.882;12.592;2023-08-08T10:12:39;1.50;;;0.30;;
19414;SDS011;9843;48.882;12.592;2023-08-08T10:15:06;0.88;;;0.50;;
19414;SDS011;9843;48.882;12.592;2023-08-08T10:17:36;4.22;;;1.65;;
19414;SDS011;9843;48.882;12.592;2023-08-08T10:20:04;1.02;;;0.73;;
19414;SDS011;9843;48.882;12.592;2023-08-08T10:22:36;2.33;;;0.85;;
19414;SDS011;9843;48.882;12.592;2023-08-08T10:25:04;0.95;;;0.70;;
19414;SDS011;9843;48.882;12.592;2023-08-08T10:27:31;1.00;;;0.60;;
19414;SDS011;9843;48.882;12.592;2023-08-08T10:30:03;1.05;;;0.88;;
19414;SDS011;9843;48.882;12.592;2023-08-08T10:32:38;1.40;;;0.95;;
19414;SDS011;9843;48.882;12.592;2023-08-08T10:35:06;2.70;;;0.75;;
19414;SDS011;9843;48.882;12.592;2023-08-08T10:37:33;1.52;;;0.90;;
19414;SDS011;9843;48.882;12.592;2023-08-08T10:40:01;1.58;;;0.80;;
19414;SDS011;9843;48.882;12.592;2023-08-08T10:42:31;1.70;;;0.80;;
19414;SDS011;9843;48.882;12.592;2023-08-08T10:44:59;1.85;;;0.70;;
19414;SDS011;9843;48.882;12.592;2023-08-08T10:47:30;4.75;;;1.15;;
19414;SDS011;9843;48.882;12.592;2023-08-08T10:50:05;3.80;;;0.80;;
19414;SDS011;9843;48.882;12.592;2023-08-08T10:52:37;0.98;;;0.88;;
19414;SDS011;9843;48.882;12.592;2023-08-08T10:55:05;4.47;;;1.00;;
19414;SDS011;9843;48.882;12.592;2023-08-08T10:57:32;2.17;;;0.70;;
19414;SDS011;9843;48.882;12.592;2023-08-08T11:02:42;2.97;;;1.00;;
19414;SDS011;9843;48.882;12.592;2023-08-08T11:05:10;1.65;;;0.88;;
19414;SDS011;9843;48.882;12.592;2023-08-08T11:07:38;2.05;;;0.98;;
19414;SDS011;9843;48.882;12.592;2023-08-08T11:10:05;3.90;;;0.90;;
19414;SDS011;9843;48.882;12.592;2023-08-08T11:12:32;4.35;;;1.10;;
19414;SDS011;9843;48.882;12.592;2023-08-08T11:14:59;2.30;;;0.95;;
19414;SDS011;9843;48.882;12.592;2023-08-08T11:17:26;0.50;;;0.50;;
19414;SDS011;9843;48.882;12.592;2023-08-08T11:19:54;0.85;;;0.68;;
19414;SDS011;9843;48.882;12.592;2023-08-08T11:22:22;1.33;;;0.88;;
19414;SDS011;9843;48.882;12.592;2023-08-08T11:24:49;1.42;;;0.77;;
19414;SDS011;9843;48.882;12.592;2023-08-08T11:27:16;1.80;;;0.90;;
19414;SDS011;9843;48.882;12.592;2023-08-08T11:29:48;2.13;;;0.77;;
19414;SDS011;9843;48.882;12.592;2023-08-08T11:32:15;1.98;;;0.65;;
19414;SDS011;9843;48.882;12.592;2023-08-08T11:34:42;2.67;;;1.23;;
19414;SDS011;9843;48.882;12.592;2023-08-08T11:37:10;1.67;;;0.85;;
19414;SDS011;9843;48.882;12.592;2023-08-08T11:39:41;1.23;;;0.80;;
19414;SDS011;9843;48.882;12.592;2023-08-08T11:42:09;1.92;;;1.13;;
19414;SDS011;9843;48.882;12.592;2023-08-08T11:44:36;2.30;;;0.93;;
19414;SDS011;9843;48.882;12.592;2023-08-08T11:47:03;1.05;;;0.90;;
19414;SDS011;9843;48.882;12.592;2023-08-08T11:49:30;1.10;;;0.82;;
19414;SDS011;9843;48.882;12.592;2023-08-08T11:52:05;2.88;;;1.55;;
19414;SDS011;9843;48.882;12.592;2023-08-08T11:54:33;1.17;;;0.73;;
19414;SDS011;9843;48.882;12.592;2023-08-08T11:57:01;5.50;;;1.30;;
19414;SDS011;9843;48.882;12.592;2023-08-08T11:59:30;2.35;;;2.00;;
19414;SDS011;9843;48.882;12.592;2023-08-08T12:01:57;2.13;;;1.10;;
19414;SDS011;9843;48.882;12.592;2023-08-08T12:04:25;1.95;;;1.10;;
19414;SDS011;9843;48.882;12.592;2023-08-08T12:07:00;1.52;;;1.05;;
19414;SDS011;9843;48.882;12.592;2023-08-08T12:09:28;1.33;;;1.00;;
19414;SDS011;9843;48.882;12.592;2023-08-08T12:11:58;0.95;;;0.77;;
19414;SDS011;9843;48.882;12.592;2023-08-08T12:14:26;1.63;;;1.50;;
19414;SDS011;9843;48.882;12.592;2023-08-08T12:16:54;1.53;;;0.93;;
19414;SDS011;9843;48.882;12.592;2023-08-08T12:19:22;1.27;;;1.00;;
19414;SDS011;9843;48.882;12.592;2023-08-08T12:21:49;1.63;;;0.80;;
19414;SDS011;9843;48.882;12.592;2023-08-08T12:24:17;2.50;;;1.33;;
19414;SDS011;9843;48.882;12.592;2023-08-08T12:26:44;3.07;;;1.23;;
19414;SDS011;9843;48.882;12.592;2023-08-08T12:29:11;1.93;;;1.23;;
19414;SDS011;9843;48.882;12.592;2023-08-08T12:31:40;2.27;;;1.07;;
19414;SDS011;9843;48.882;12.592;2023-08-08T12:34:07;1.77;;;1.17;;
19414;SDS011;9843;48.882;12.592;2023-08-08T12:36:35;2.87;;;0.90;;
19414;SDS011;9843;48.882;12.592;2023-08-08T12:39:02;5.70;;;2.77;;
19414;SDS011;9843;48.882;12.592;2023-08-08T12:41:29;8.30;;;2.42;;
19414;SDS011;9843;48.882;12.592;2023-08-08T12:43:57;3.03;;;1.10;;
19414;SDS011;9843;48.882;12.592;2023-08-08T12:46:24;3.80;;;1.38;;
19414;SDS011;9843;48.882;12.592;2023-08-08T12:48:52;2.17;;;1.30;;
19414;SDS011;9843;48.882;12.592;2023-08-08T12:51:19;5.43;;;1.52;;
19414;SDS011;9843;48.882;12.592;2023-08-08T12:53:46;3.65;;;1.55;;
19414;SDS011;9843;48.882;12.592;2023-08-08T12:56:13;1.48;;;1.10;;
19414;SDS011;9843;48.882;12.592;2023-08-08T12:58:40;2.63;;;1.05;;
19414;SDS011;9843;48.882;12.592;2023-08-08T13:01:07;1.88;;;1.08;;
19414;SDS011;9843;48.882;12.592;2023-08-08T13:03:35;3.20;;;0.87;;
19414;SDS011;9843;48.882;12.592;2023-08-08T13:06:04;2.97;;;1.63;;
19414;SDS011;9843;48.882;12.592;2023-08-08T13:08:31;4.32;;;1.38;;
19414;SDS011;9843;48.882;12.592;2023-08-08T13:10:59;4.68;;;1.13;;
19414;SDS011;9843;48.882;12.592;2023-08-08T13:13:26;1.60;;;1.10;;
19414;SDS011;9843;48.882;12.592;2023-08-08T13:15:53;1.85;;;1.05;;
19414;SDS011;9843;48.882;12.592;2023-08-08T13:18:20;1.40;;;1.10;;
19414;SDS011;9843;48.882;12.592;2023-08-08T13:20:47;2.83;;;0.85;;
19414;SDS011;9843;48.882;12.592;2023-08-08T13:23:19;2.72;;;1.20;;
19414;SDS011;9843;48.882;12.592;2023-08-08T13:25:46;1.08;;;0.93;;
19414;SDS011;9843;48.882;12.592;2023-08-08T13:28:14;1.10;;;0.90;;
19414;SDS011;9843;48.882;12.592;2023-08-08T13:30:41;1.23;;;0.93;;
19414;SDS011;9843;48.882;12.592;2023-08-08T13:33:08;4.10;;;1.40;;
19414;SDS011;9843;48.882;12.592;2023-08-08T13:35:35;5.68;;;1.50;;
19414;SDS011;9843;48.882;12.592;2023-08-08T13:38:02;2.33;;;1.10;;
19414;SDS011;9843;48.882;12.592;2023-08-08T13:40:31;3.03;;;1.63;;
19414;SDS011;9843;48.882;12.592;2023-08-08T13:42:58;0.80;;;0.80;;
19414;SDS011;9843;48.882;12.592;2023-08-08T13:45:25;1.45;;;1.35;;
19414;SDS011;9843;48.882;12.592;2023-08-08T13:47:52;2.03;;;1.02;;
19414;SDS011;9843;48.882;12.592;2023-08-08T13:50:19;2.55;;;1.00;;
19414;SDS011;9843;48.882;12.592;2023-08-08T13:52:46;0.93;;;0.68;;
19414;SDS011;9843;48.882;12.592;2023-08-08T13:55:13;2.58;;;1.20;;
19414;SDS011;9843;48.882;12.592;2023-08-08T13:57:41;0.77;;;0.73;;
19414;SDS011;9843;48.882;12.592;2023-08-08T14:00:09;2.72;;;1.10;;
19414;SDS011;9843;48.882;12.592;2023-08-08T14:02:37;1.30;;;0.93;;
19414;SDS011;9843;48.882;12.592;2023-08-08T14:05:05;1.50;;;1.27;;
19414;SDS011;9843;48.882;12.592;2023-08-08T14:07:32;3.00;;;1.10;;
19414;SDS011;9843;48.882;12.592;2023-08-08T14:10:00;2.03;;;1.10;;
19414;SDS011;9843;48.882;12.592;2023-08-08T14:12:27;3.60;;;1.30;;
19414;SDS011;9843;48.882;12.592;2023-08-08T14:14:55;4.43;;;1.25;;
19414;SDS011;9843;48.882;12.592;2023-08-08T14:17:22;2.55;;;1.08;;
19414;SDS011;9843;48.882;12.592;2023-08-08T14:19:49;2.30;;;1.00;;
19414;SDS011;9843;48.882;12.592;2023-08-08T14:22:16;3.50;;;1.98;;
19414;SDS011;9843;48.882;12.592;2023-08-08T14:24:43;2.38;;;0.93;;
19414;SDS011;9843;48.882;12.592;2023-08-08T14:27:10;3.75;;;0.90;;
19414;SDS011;9843;48.882;12.592;2023-08-08T14:29:37;2.50;;;1.25;;
19414;SDS011;9843;48.882;12.592;2023-08-08T14:32:06;1.95;;;1.15;;
19414;SDS011;9843;48.882;12.592;2023-08-08T14:34:33;2.42;;;1.25;;
19414;SDS011;9843;48.882;12.592;2023-08-08T14:37:02;2.23;;;1.50;;
19414;SDS011;9843;48.882;12.592;2023-08-08T14:39:29;3.13;;;1.23;;
19414;SDS011;9843;48.882;12.592;2023-08-08T14:41:57;1.67;;;1.33;;
19414;SDS011;9843;48.882;12.592;2023-08-08T14:44:25;2.80;;;1.50;;
19414;SDS011;9843;48.882;12.592;2023-08-08T14:46:52;1.58;;;1.00;;
19414;SDS011;9843;48.882;12.592;2023-08-08T14:49:20;2.08;;;1.20;;
19414;SDS011;9843;48.882;12.592;2023-08-08T14:51:47;1.30;;;0.70;;
19414;SDS011;9843;48.882;12.592;2023-08-08T14:54:14;1.50;;;1.00;;
19414;SDS011;9843;48.882;12.592;2023-08-08T14:56:42;1.23;;;1.00;;
19414;SDS011;9843;48.882;12.592;2023-08-08T14:59:09;1.20;;;1.03;;